Time;durP1;ratioP1;P1;durP2;ratioP2;P2;SDS_P1;SDS_P2;PMS_P1;PMS_P2;Temp;Humidity;BMP_temperature;BMP_pressure;BME280_temperature;BME280_humidity;BME280_pressure;Samples;Min_cycle;Max_cycle;Signal;HPM_P1;HPM_P2
2022/07/09 19:21:40;;;;;;;6.07;0.80;;;19.20;97.10;;;;;;5114409;27;1199491;-64
2022/07/09 19:24:07;;;;;;;8.98;1.20;;;18.90;97.80;;;;;;5138568;27;20062;-64
2022/07/09 19:26:32;;;;;;;7.07;1.27;;;18.70;98.60;;;;;;5137733;27;20535;-64
2022/07/09 19:28:58;;;;;;;5.82;1.30;;;18.70;99.10;;;;;;5134226;27;20120;-64
2022/07/09 19:34:08;;;;;;;5.10;1.00;;;18.50;99.90;;;;;;5134185;27;20138;-65
2022/07/09 19:36:39;;;;;;;6.85;1.00;;;18.50;99.90;;;;;;5130739;27;20035;-65
2022/07/09 19:39:05;;;;;;;8.10;1.27;;;18.50;99.90;;;;;;5134045;27;21955;-65
2022/07/09 19:41:33;;;;;;;4.43;1.02;;;18.50;99.90;;;;;;5136005;27;20096;-65
2022/07/09 19:43:59;;;;;;;4.55;1.25;;;18.50;99.90;;;;;;5137047;27;20066;-65
2022/07/09 19:46:24;;;;;;;5.35;1.10;;;18.40;99.90;;;;;;5134713;27;20740;-65
2022/07/09 19:48:50;;;;;;;4.05;1.02;;;18.30;99.90;;;;;;5139496;27;20043;-66
2022/07/09 19:51:21;;;;;;;6.95;1.40;;;18.30;99.90;;;;;;5136097;27;20504;-66
2022/07/09 19:53:46;;;;;;;5.28;1.17;;;18.30;99.90;;;;;;5134828;27;20061;-66
2022/07/09 19:56:12;;;;;;;2.72;0.85;;;18.30;99.90;;;;;;5132463;27;20043;-65
2022/07/09 19:58:38;;;;;;;6.72;1.15;;;18.30;99.90;;;;;;5128300;27;20035;-66
2022/07/09 20:01:04;;;;;;;5.70;1.15;;;18.30;99.90;;;;;;5127391;27;20252;-66
2022/07/09 20:03:29;;;;;;;7.45;1.20;;;18.30;99.90;;;;;;5123550;27;20048;-66
2022/07/09 20:05:55;;;;;;;4.43;1.27;;;18.30;99.90;;;;;;5110505;28;20066;-66
2022/07/09 20:08:20;;;;;;;5.10;1.00;;;18.20;99.90;;;;;;5118608;28;20088;-66
2022/07/09 20:10:46;;;;;;;3.72;1.05;;;18.20;99.90;;;;;;5121481;28;20135;-66
2022/07/09 20:13:11;;;;;;;5.10;1.08;;;18.10;99.70;;;;;;5119654;28;20118;-64
2022/07/09 20:15:37;;;;;;;6.63;1.55;;;18.00;99.80;;;;;;5119195;28;20051;-65
2022/07/09 20:18:03;;;;;;;6.13;1.17;;;17.90;99.80;;;;;;5121691;28;20043;-64
2022/07/09 20:20:28;;;;;;;6.63;1.38;;;17.80;99.90;;;;;;5118925;27;20054;-65
2022/07/09 20:22:54;;;;;;;6.07;1.20;;;17.70;99.90;;;;;;5114912;28;20100;-65
2022/07/09 20:25:19;;;;;;;5.45;1.15;;;17.70;99.90;;;;;;5114633;28;20043;-65
2022/07/09 20:27:45;;;;;;;5.22;1.15;;;17.70;99.90;;;;;;5120912;28;20070;-64
2022/07/09 20:30:11;;;;;;;6.65;1.45;;;17.70;99.90;;;;;;5116343;28;20120;-64
2022/07/09 20:32:36;;;;;;;8.02;1.55;;;17.80;99.90;;;;;;5108295;27;20077;-64
2022/07/09 20:35:02;;;;;;;6.53;1.48;;;17.80;99.90;;;;;;5106980;28;20047;-63
2022/07/09 20:37:28;;;;;;;5.47;1.02;;;17.70;99.90;;;;;;5105880;28;20043;-63
2022/07/09 20:39:53;;;;;;;6.78;1.30;;;17.70;99.90;;;;;;5103045;28;20325;-63
2022/07/09 20:42:19;;;;;;;4.47;0.98;;;17.70;99.90;;;;;;5103336;28;20036;-63
2022/07/09 20:44:45;;;;;;;5.95;1.00;;;17.70;99.90;;;;;;5105237;28;20063;-63
2022/07/09 20:47:10;;;;;;;8.52;1.20;;;17.70;99.90;;;;;;5099945;28;20039;-63
2022/07/09 20:49:36;;;;;;;6.78;1.20;;;17.70;99.90;;;;;;5103255;28;20434;-63
2022/07/09 20:52:03;;;;;;;5.18;1.00;;;17.70;99.90;;;;;;5100422;28;20120;-63
2022/07/09 20:54:29;;;;;;;5.60;1.40;;;17.70;99.90;;;;;;5101117;28;20044;-63
2022/07/09 20:56:54;;;;;;;4.38;1.00;;;17.60;99.90;;;;;;5100796;28;20043;-63
2022/07/09 20:59:20;;;;;;;6.70;1.00;;;17.50;99.90;;;;;;5102578;28;20798;-63
2022/07/09 21:01:47;;;;;;;5.93;1.08;;;17.50;99.90;;;;;;5101774;28;20050;-63
2022/07/09 21:04:12;;;;;;;6.97;1.20;;;17.50;99.90;;;;;;5097262;28;20048;-63
2022/07/09 21:06:38;;;;;;;5.93;1.40;;;17.50;99.90;;;;;;5101319;28;20101;-63
2022/07/09 21:09:03;;;;;;;6.68;1.25;;;17.60;99.90;;;;;;5104113;28;20047;-63
2022/07/09 21:11:29;;;;;;;5.10;1.15;;;17.60;99.90;;;;;;5099206;27;20182;-63
2022/07/09 21:13:54;;;;;;;6.78;1.15;;;17.60;99.90;;;;;;5095740;28;20043;-63
2022/07/09 21:18:46;;;;;;;6.32;1.08;;;17.60;99.90;;;;;;5098108;28;20071;-63
2022/07/09 21:19:06;;;;;;;4.60;1.10;;;17.60;99.90;;;;;;5099816;28;20443;-63
2022/07/09 21:21:31;;;;;;;9.02;1.27;;;17.60;99.90;;;;;;5105369;28;20137;-64
2022/07/09 21:23:58;;;;;;;5.22;1.10;;;17.50;99.90;;;;;;5107689;28;20826;-64
2022/07/09 21:26:24;;;;;;;6.10;1.23;;;17.40;99.90;;;;;;5109241;28;20121;-63
2022/07/09 21:28:50;;;;;;;6.82;1.20;;;17.50;99.90;;;;;;5104931;28;20796;-63
2022/07/09 21:31:15;;;;;;;7.65;1.42;;;17.40;99.90;;;;;;5107515;28;20116;-63
2022/07/09 21:33:41;;;;;;;7.35;1.40;;;17.30;99.90;;;;;;5105839;28;20368;-63
2022/07/09 21:36:07;;;;;;;7.82;1.45;;;17.30;99.90;;;;;;5100255;28;20058;-63
2022/07/09 21:38:32;;;;;;;7.88;1.23;;;17.30;99.90;;;;;;5098875;28;20044;-63
2022/07/09 21:40:58;;;;;;;7.20;1.20;;;17.30;99.90;;;;;;5096766;28;20330;-63
2022/07/09 21:43:26;;;;;;;5.72;1.10;;;17.20;99.90;;;;;;5100238;28;21714;-63
2022/07/09 21:45:52;;;;;;;5.72;1.20;;;17.10;99.90;;;;;;5099171;28;20082;-63
2022/07/09 21:48:18;;;;;;;4.10;1.25;;;17.20;99.90;;;;;;5100718;28;20059;-63
2022/07/09 21:50:43;;;;;;;5.50;1.45;;;17.20;99.90;;;;;;5104318;28;20061;-63
2022/07/09 21:53:09;;;;;;;7.53;1.23;;;17.10;99.90;;;;;;5100823;28;20524;-63
2022/07/09 21:55:35;;;;;;;4.38;0.98;;;17.00;99.90;;;;;;5100893;28;20853;-63
2022/07/09 21:58:00;;;;;;;7.63;1.50;;;17.00;99.90;;;;;;5101040;28;20085;-63
2022/07/09 22:00:48;;;;;;;6.60;1.40;;;16.90;99.90;;;;;;5096645;28;20050;-63
2022/07/09 22:03:15;;;;;;;7.90;1.83;;;16.90;99.90;;;;;;5102571;28;20047;-63
2022/07/09 22:05:40;;;;;;;7.50;1.30;;;16.90;99.90;;;;;;5097982;28;20042;-63
2022/07/09 22:08:06;;;;;;;4.72;1.20;;;16.90;99.90;;;;;;5102514;28;20027;-63
2022/07/09 22:10:31;;;;;;;6.30;1.20;;;16.80;99.90;;;;;;5100063;28;20047;-63
2022/07/09 22:12:58;;;;;;;6.60;1.30;;;16.80;99.90;;;;;;5102553;28;20047;-63
2022/07/09 22:15:24;;;;;;;6.22;1.20;;;16.80;99.90;;;;;;5099814;28;20122;-63
2022/07/09 22:17:49;;;;;;;6.57;1.35;;;16.80;99.90;;;;;;5101028;28;20096;-63
2022/07/09 22:20:15;;;;;;;7.22;1.60;;;16.60;99.90;;;;;;5101335;28;20227;-63
2022/07/09 22:22:40;;;;;;;7.00;1.23;;;16.70;99.90;;;;;;5100752;28;20058;-63
2022/07/09 22:25:06;;;;;;;5.20;1.38;;;16.60;99.90;;;;;;5101087;28;20158;-64
2022/07/09 22:27:32;;;;;;;7.85;1.65;;;16.60;99.90;;;;;;5100792;28;20044;-63
2022/07/09 22:29:58;;;;;;;9.13;1.25;;;16.50;99.90;;;;;;5099131;28;20055;-63
2022/07/09 22:32:23;;;;;;;7.40;1.30;;;16.40;99.90;;;;;;5097880;28;20659;-63
2022/07/09 22:34:49;;;;;;;7.43;1.63;;;16.40;99.90;;;;;;5101254;28;20032;-63
2022/07/09 22:37:14;;;;;;;5.03;1.40;;;16.40;99.90;;;;;;5098234;28;20067;-63
2022/07/09 22:39:40;;;;;;;5.78;1.20;;;16.30;99.90;;;;;;5098836;28;20039;-63
2022/07/09 22:42:06;;;;;;;7.30;1.27;;;16.30;99.90;;;;;;5098314;28;20061;-63
2022/07/09 22:44:31;;;;;;;5.40;1.50;;;16.30;99.90;;;;;;5098836;28;20040;-63
2022/07/09 22:46:57;;;;;;;7.88;1.55;;;16.30;99.90;;;;;;5099063;28;20043;-63
2022/07/09 22:49:22;;;;;;;7.90;1.30;;;16.30;99.90;;;;;;5101837;28;20068;-63
2022/07/09 22:51:48;;;;;;;8.32;1.38;;;16.20;99.90;;;;;;5099765;28;20036;-63
2022/07/09 22:54:13;;;;;;;9.05;1.52;;;16.10;99.90;;;;;;5105640;28;20052;-63
2022/07/09 22:56:39;;;;;;;7.00;1.30;;;16.10;99.90;;;;;;5103808;28;20040;-63
2022/07/09 22:59:05;;;;;;;6.03;1.50;;;16.10;99.90;;;;;;5101454;28;20115;-63
2022/07/09 23:01:30;;;;;;;5.63;1.10;;;16.10;99.90;;;;;;5099044;28;20043;-63
2022/07/09 23:03:56;;;;;;;6.57;1.33;;;16.00;99.90;;;;;;5101496;28;20111;-63
2022/07/09 23:06:21;;;;;;;6.15;1.30;;;15.90;99.90;;;;;;5103884;28;20042;-63
2022/07/09 23:08:56;;;;;;;4.90;1.10;;;15.90;99.90;;;;;;5106038;28;20086;-63
2022/07/09 23:11:32;;;;;;;6.85;1.20;;;16.00;99.90;;;;;;5104155;28;20122;-63
2022/07/09 23:14:00;;;;;;;4.38;1.38;;;16.00;99.90;;;;;;5099983;28;20070;-63
2022/07/09 23:16:29;;;;;;;8.38;1.58;;;16.00;99.90;;;;;;5095763;28;20044;-63
2022/07/09 23:18:55;;;;;;;6.97;1.30;;;16.00;99.90;;;;;;5097600;28;20418;-63
2022/07/09 23:21:21;;;;;;;6.07;1.35;;;16.00;99.90;;;;;;5095757;28;20181;-63
2022/07/09 23:23:47;;;;;;;7.13;1.25;;;16.00;99.90;;;;;;5098312;28;20150;-63
2022/07/09 23:26:12;;;;;;;4.88;1.10;;;16.00;99.90;;;;;;5098527;28;20585;-63
2022/07/09 23:28:38;;;;;;;6.03;1.73;;;16.00;99.90;;;;;;5099512;28;20067;-63
2022/07/09 23:31:04;;;;;;;7.38;1.48;;;16.00;99.90;;;;;;5100969;28;20861;-63
2022/07/09 23:33:29;;;;;;;7.93;1.52;;;16.00;99.90;;;;;;5099129;28;20043;-63
2022/07/09 23:35:56;;;;;;;7.43;1.52;;;16.00;99.90;;;;;;5099397;28;20037;-63
2022/07/09 23:38:22;;;;;;;7.05;1.45;;;16.00;99.90;;;;;;5099769;28;20063;-63
2022/07/09 23:40:48;;;;;;;12.32;1.65;;;16.00;99.90;;;;;;5095579;28;20052;-63
2022/07/09 23:43:13;;;;;;;7.15;1.40;;;16.00;99.90;;;;;;5100693;28;20044;-63
2022/07/09 23:45:39;;;;;;;5.78;1.42;;;16.00;99.90;;;;;;5095841;28;20047;-63
2022/07/09 23:48:05;;;;;;;8.07;1.60;;;16.00;99.90;;;;;;5099680;28;20040;-63
2022/07/09 23:50:30;;;;;;;9.35;1.60;;;16.00;99.90;;;;;;5099573;28;20043;-63
2022/07/09 23:52:56;;;;;;;6.65;1.35;;;15.90;99.90;;;;;;5101220;28;20043;-63
2022/07/09 23:55:21;;;;;;;7.38;1.58;;;15.90;99.90;;;;;;5099693;28;20557;-63
2022/07/09 23:57:47;;;;;;;6.57;1.27;;;15.90;99.90;;;;;;5098908;28;20118;-63
